createdAt,value
2018-02-19T00:00:55.415Z,80.80
2018-02-19T00:03:24.452Z,80.80
2018-02-19T00:05:53.471Z,81.40
2018-02-19T00:08:21.712Z,81.00
2018-02-19T00:10:49.975Z,81.20
2018-02-19T00:13:18.214Z,81.00
2018-02-19T00:15:46.462Z,81.00
2018-02-19T00:18:14.721Z,80.80
2018-02-19T00:20:43.010Z,80.80
2018-02-19T00:23:12.011Z,80.90
2018-02-19T00:25:40.424Z,80.90
2018-02-19T00:28:08.673Z,80.80
2018-02-19T00:30:36.912Z,80.80
2018-02-19T00:33:06.134Z,81.10
2018-02-19T00:35:34.435Z,80.90
2018-02-19T00:38:02.754Z,81.20
2018-02-19T00:40:32.900Z,81.40
2018-02-19T00:43:01.291Z,81.20
2018-02-19T00:45:29.551Z,81.40
2018-02-19T00:48:08.552Z,81.40
2018-02-19T00:50:36.772Z,81.20
2018-02-19T00:53:05.038Z,81.40
2018-02-19T00:55:33.297Z,81.40
2018-02-19T00:58:01.672Z,81.20
2018-02-19T01:00:30.673Z,81.60
2018-02-19T01:02:58.923Z,81.50
2018-02-19T01:05:28.027Z,81.70
2018-02-19T01:07:57.304Z,82.00
2018-02-19T01:10:25.511Z,81.80
2018-02-19T01:12:53.794Z,82.10
2018-02-19T01:15:22.211Z,82.20
2018-02-19T01:17:50.513Z,82.30
2018-02-19T01:20:18.759Z,82.50
2018-02-19T01:22:47.006Z,82.60
2018-02-19T01:25:15.258Z,82.80
2018-02-19T01:27:43.516Z,82.80
2018-02-19T01:30:12.541Z,83.10
2018-02-19T01:32:40.782Z,82.90
2018-02-19T01:35:09.864Z,83.20
2018-02-19T01:37:38.106Z,83.20
2018-02-19T01:40:06.400Z,83.20
2018-02-19T01:42:34.679Z,83.30
2018-02-19T01:45:03.007Z,84.10
2018-02-19T01:47:31.260Z,83.30
2018-02-19T01:50:17.643Z,83.40
2018-02-19T01:52:45.906Z,83.60
2018-02-19T01:55:14.335Z,84.00
2018-02-19T01:57:42.669Z,83.50
2018-02-19T02:00:10.900Z,83.50
2018-02-19T02:02:39.158Z,83.60
2018-02-19T02:05:07.418Z,83.60
2018-02-19T02:07:35.783Z,83.70
2018-02-19T02:10:04.834Z,83.50
2018-02-19T02:12:33.137Z,83.40
2018-02-19T02:15:01.415Z,83.60
2018-02-19T02:17:29.642Z,83.80
2018-02-19T02:19:58.076Z,83.70
2018-02-19T02:22:27.133Z,84.10
2018-02-19T02:24:55.531Z,84.00
2018-02-19T02:27:23.799Z,84.20
2018-02-19T02:29:52.095Z,84.40
2018-02-19T02:32:21.118Z,84.60
2018-02-19T02:34:49.396Z,84.60
2018-02-19T02:37:17.787Z,84.70
2018-02-19T02:39:46.071Z,84.50
2018-02-19T02:42:14.319Z,84.60
2018-02-19T02:44:42.583Z,84.60
2018-02-19T02:47:10.834Z,84.40
2018-02-19T02:49:39.870Z,84.70
2018-02-19T02:52:08.199Z,84.50
2018-02-19T02:54:36.419Z,84.50
2018-02-19T02:57:04.682Z,84.40
2018-02-19T02:59:33.123Z,84.40
2018-02-19T03:02:01.356Z,84.40
2018-02-19T03:04:29.618Z,84.30
2018-02-19T03:06:57.873Z,84.30
2018-02-19T03:09:26.129Z,84.30
2018-02-19T03:11:55.172Z,85.10
2018-02-19T03:14:23.423Z,84.30
2018-02-19T03:16:51.695Z,84.20
2018-02-19T03:19:19.961Z,84.00
2018-02-19T03:21:48.279Z,84.00
2018-02-19T03:24:16.592Z,84.00
2018-02-19T03:26:44.847Z,83.70
2018-02-19T03:29:13.110Z,83.80
2018-02-19T03:31:41.414Z,83.70
2018-02-19T03:34:10.627Z,83.10
2018-02-19T03:36:39.644Z,83.60
2018-02-19T03:39:08.032Z,83.70
2018-02-19T03:41:36.407Z,83.30
2018-02-19T03:44:04.651Z,83.30
2018-02-19T03:46:33.766Z,83.20
2018-02-19T03:49:02.110Z,83.10
2018-02-19T03:51:30.335Z,83.00
2018-02-19T03:53:58.579Z,82.90
2018-02-19T03:56:26.831Z,82.90
2018-02-19T03:58:55.843Z,82.90
2018-02-19T04:01:24.232Z,82.90
2018-02-19T04:03:52.564Z,82.90
2018-02-19T04:06:20.846Z,83.00
2018-02-19T04:08:49.107Z,83.10
2018-02-19T04:11:17.370Z,83.20
2018-02-19T04:13:45.631Z,83.40
2018-02-19T04:16:13.880Z,83.40
2018-02-19T04:18:42.321Z,83.50
2018-02-19T04:21:10.590Z,83.50
2018-02-19T04:23:38.851Z,83.60
2018-02-19T04:26:08.611Z,83.80
2018-02-19T04:28:36.866Z,83.70
2018-02-19T04:31:05.143Z,83.90
2018-02-19T04:33:33.391Z,84.00
2018-02-19T04:36:01.692Z,84.10
2018-02-19T04:38:29.930Z,85.00
2018-02-19T04:40:58.189Z,84.30
2018-02-19T04:43:26.441Z,84.30
2018-02-19T04:45:54.704Z,84.30
2018-02-19T04:48:22.976Z,84.20
2018-02-19T04:50:51.987Z,84.30
2018-02-19T04:53:20.250Z,84.10
2018-02-19T04:55:48.494Z,84.10
2018-02-19T04:58:17.499Z,84.10
2018-02-19T05:00:45.774Z,84.10
2018-02-19T05:03:14.032Z,84.10
2018-02-19T05:05:42.287Z,84.10
2018-02-19T05:08:10.687Z,83.90
2018-02-19T05:10:38.934Z,84.00
2018-02-19T05:13:07.335Z,83.80
2018-02-19T05:15:35.600Z,83.60
2018-02-19T05:18:03.903Z,83.60
2018-02-19T05:20:32.935Z,83.20
2018-02-19T05:23:01.205Z,83.20
2018-02-19T05:25:29.504Z,83.00
2018-02-19T05:27:57.776Z,82.80
2018-02-19T05:30:26.023Z,82.70
2018-02-19T05:32:54.555Z,82.60
2018-02-19T05:35:22.827Z,82.50
2018-02-19T05:37:51.883Z,83.10
2018-02-19T05:40:20.134Z,82.30
2018-02-19T05:42:48.403Z,82.30
2018-02-19T05:45:16.722Z,82.00
2018-02-19T05:47:45.031Z,82.00
2018-02-19T05:50:13.259Z,82.00
2018-02-19T05:52:41.520Z,81.80
2018-02-19T05:55:09.870Z,81.70
2018-02-19T05:57:38.160Z,81.80
2018-02-19T06:00:06.425Z,81.70
2018-02-19T06:02:35.468Z,81.50
2018-02-19T06:05:03.877Z,81.50
2018-02-19T06:07:32.120Z,81.60
2018-02-19T06:10:00.360Z,81.60
2018-02-19T06:12:28.740Z,81.20
2018-02-19T06:14:56.949Z,81.10
2018-02-19T06:17:25.207Z,81.10
2018-02-19T06:19:53.478Z,81.00
2018-02-19T06:22:21.759Z,80.50
2018-02-19T06:24:50.299Z,80.50
2018-02-19T06:27:19.418Z,80.10
2018-02-19T06:29:47.671Z,80.00
2018-02-19T06:32:16.699Z,79.60
2018-02-19T06:34:45.037Z,79.50
2018-02-19T06:37:14.047Z,79.20
2018-02-19T06:39:42.330Z,79.00
2018-02-19T06:42:10.586Z,79.20
2018-02-19T06:44:39.031Z,79.40
2018-02-19T06:47:07.290Z,79.00
2018-02-19T06:49:37.076Z,78.80
2018-02-19T06:52:05.323Z,78.80
2018-02-19T06:54:33.598Z,78.90
2018-02-19T06:57:01.891Z,78.40
2018-02-19T06:59:30.152Z,78.20
2018-02-19T07:01:58.391Z,78.30
2018-02-19T07:04:26.686Z,78.20
2018-02-19T07:06:55.766Z,77.50
2018-02-19T07:09:24.188Z,77.50
2018-02-19T07:11:53.366Z,77.10
2018-02-19T07:14:21.675Z,77.10
2018-02-19T07:16:49.924Z,77.10
2018-02-19T07:19:18.199Z,77.20
2018-02-19T07:21:46.484Z,76.90
2018-02-19T07:24:14.726Z,76.40
2018-02-19T07:26:43.743Z,75.80
2018-02-19T07:29:12.019Z,75.80
2018-02-19T07:31:40.404Z,75.50
2018-02-19T07:34:08.666Z,75.60
2018-02-19T07:36:36.967Z,75.70
2018-02-19T07:39:05.277Z,75.60
2018-02-19T07:41:33.530Z,75.40
2018-02-19T07:44:01.937Z,75.10
2018-02-19T07:46:30.314Z,74.80
2018-02-19T07:48:58.567Z,74.40
2018-02-19T07:51:26.976Z,74.30
2018-02-19T07:53:55.772Z,74.60
2018-02-19T07:56:24.198Z,74.10
2018-02-19T07:58:52.470Z,74.10
2018-02-19T08:01:20.745Z,73.90
2018-02-19T08:03:49.014Z,73.90
2018-02-19T08:06:17.385Z,73.90
2018-02-19T08:08:45.675Z,73.70
2018-02-19T08:11:14.014Z,73.30
2018-02-19T08:13:42.400Z,73.20
2018-02-19T08:16:10.641Z,72.80
2018-02-19T08:18:39.667Z,72.70
2018-02-19T08:21:07.947Z,72.50
2018-02-19T08:23:36.215Z,72.90
2018-02-19T08:26:04.883Z,72.20
2018-02-19T08:28:33.896Z,71.70
2018-02-19T08:31:02.179Z,71.70
2018-02-19T08:33:30.436Z,71.20
2018-02-19T08:35:58.723Z,70.90
2018-02-19T08:38:27.071Z,71.00
2018-02-19T08:40:56.215Z,71.30
2018-02-19T08:43:25.313Z,71.30
2018-02-19T08:45:53.704Z,70.80
2018-02-19T08:48:22.091Z,70.40
2018-02-19T08:50:50.407Z,70.30
2018-02-19T08:53:18.689Z,69.60
2018-02-19T08:55:47.795Z,69.90
2018-02-19T08:58:16.062Z,69.80
2018-02-19T09:00:44.319Z,70.00
2018-02-19T09:03:12.701Z,69.90
2018-02-19T09:05:40.982Z,69.30
2018-02-19T09:08:09.256Z,69.00
2018-02-19T09:10:38.320Z,68.50
2018-02-19T09:13:07.353Z,69.30
2018-02-19T09:15:35.663Z,68.50
2018-02-19T09:18:03.907Z,69.30
2018-02-19T09:20:32.231Z,68.90
2018-02-19T09:23:00.485Z,68.20
2018-02-19T09:25:28.808Z,68.70
2018-02-19T09:27:58.051Z,68.80
2018-02-19T09:30:26.283Z,68.80
2018-02-19T09:32:54.632Z,68.70
2018-02-19T09:35:23.003Z,68.60
2018-02-19T09:37:51.259Z,67.70
2018-02-19T09:40:19.619Z,67.20
2018-02-19T09:42:47.991Z,67.00
2018-02-19T09:45:16.273Z,66.20
2018-02-19T09:47:44.566Z,66.20
2018-02-19T09:50:13.747Z,66.20
2018-02-19T09:52:43.069Z,65.90
2018-02-19T09:55:11.340Z,65.30
2018-02-19T09:57:39.630Z,65.60
2018-02-19T10:00:07.868Z,65.60
2018-02-19T10:02:36.158Z,65.30
2018-02-19T10:05:04.415Z,65.10
2018-02-19T10:07:32.695Z,65.30
2018-02-19T10:10:01.105Z,65.00
2018-02-19T10:12:29.331Z,64.60
2018-02-19T10:14:57.638Z,64.50
2018-02-19T10:17:25.891Z,64.70
2018-02-19T10:19:54.143Z,64.50
2018-02-19T10:22:22.408Z,64.50
2018-02-19T10:24:50.686Z,64.40
2018-02-19T10:27:19.057Z,64.60
2018-02-19T10:29:48.096Z,63.90
2018-02-19T10:32:16.434Z,63.80
2018-02-19T10:34:44.832Z,63.80
2018-02-19T10:37:13.244Z,63.30
2018-02-19T10:39:41.509Z,63.50
2018-02-19T10:42:09.827Z,63.40
2018-02-19T10:44:38.199Z,63.00
2018-02-19T10:47:06.552Z,63.00
2018-02-19T10:49:34.914Z,62.90
2018-02-19T10:52:03.215Z,63.00
2018-02-19T10:54:32.255Z,62.50
2018-02-19T10:57:00.549Z,62.30
2018-02-19T10:59:28.962Z,62.50
2018-02-19T11:01:57.228Z,62.20
2018-02-19T11:04:25.753Z,62.10
2018-02-19T11:06:54.008Z,61.40
2018-02-19T11:09:23.127Z,61.30
2018-02-19T11:11:51.557Z,61.30
2018-02-19T11:14:19.815Z,61.70
2018-02-19T11:16:48.078Z,62.40
2018-02-19T11:19:16.492Z,62.60
2018-02-19T11:21:44.728Z,62.50
2018-02-19T11:24:13.253Z,61.80
2018-02-19T11:26:41.495Z,61.20
2018-02-19T11:29:09.792Z,61.20
2018-02-19T11:31:38.844Z,60.70
2018-02-19T11:34:07.114Z,61.00
2018-02-19T11:36:35.376Z,60.60
2018-02-19T11:39:03.647Z,60.30
2018-02-19T11:41:31.950Z,60.40
2018-02-19T11:44:00.207Z,60.20
2018-02-19T11:46:28.535Z,60.10
2018-02-19T11:48:56.776Z,60.00
2018-02-19T11:51:25.096Z,60.00
2018-02-19T11:53:53.331Z,59.70
2018-02-19T11:56:21.774Z,59.70
2018-02-19T11:58:50.211Z,59.00
2018-02-19T12:01:18.492Z,58.80
2018-02-19T12:03:46.743Z,59.00
2018-02-19T12:06:15.062Z,59.00
2018-02-19T12:08:44.100Z,58.90
2018-02-19T12:11:12.374Z,58.80
2018-02-19T12:13:40.679Z,57.90
2018-02-19T12:16:08.988Z,57.70
2018-02-19T12:18:38.000Z,57.30
2018-02-19T12:21:06.325Z,57.20
2018-02-19T12:23:34.615Z,57.60
2018-02-19T12:26:02.889Z,56.90
2018-02-19T12:28:31.221Z,57.80
2018-02-19T12:30:59.475Z,57.50
2018-02-19T12:33:27.859Z,56.90
2018-02-19T12:35:56.131Z,57.00
2018-02-19T12:38:24.387Z,57.10
2018-02-19T12:40:53.411Z,56.90
2018-02-19T12:43:21.694Z,56.80
2018-02-19T12:45:50.104Z,57.00
2018-02-19T12:48:19.164Z,56.60
2018-02-19T12:50:47.478Z,56.60
2018-02-19T12:53:16.584Z,56.50
2018-02-19T12:55:45.760Z,56.60
2018-02-19T12:58:14.193Z,56.60
2018-02-19T13:00:42.608Z,56.10
2018-02-19T13:03:10.865Z,56.20
2018-02-19T13:05:39.150Z,56.10
2018-02-19T13:08:07.617Z,56.80
2018-02-19T13:10:35.890Z,56.50
2018-02-19T13:13:04.215Z,56.00
2018-02-19T13:15:33.297Z,56.80
2018-02-19T13:18:02.423Z,56.10
2018-02-19T13:20:30.706Z,56.00
2018-02-19T13:22:58.965Z,55.60
2018-02-19T13:25:28.183Z,55.20
2018-02-19T13:27:56.466Z,55.00
2018-02-19T13:30:24.735Z,55.60
2018-02-19T13:32:53.123Z,55.70
2018-02-19T13:35:21.384Z,56.00
2018-02-19T13:37:49.708Z,56.00
2018-02-19T13:40:17.954Z,55.90
2018-02-19T13:42:46.211Z,55.50
2018-02-19T13:45:14.536Z,55.40
2018-02-19T13:47:42.818Z,55.80
2018-02-19T13:50:11.047Z,55.40
2018-02-19T13:52:39.318Z,53.80
2018-02-19T13:55:07.688Z,54.10
2018-02-19T13:57:35.922Z,54.60
2018-02-19T14:00:06.300Z,54.40
2018-02-19T14:02:34.551Z,54.30
2018-02-19T14:05:02.894Z,54.50
2018-02-19T14:07:31.146Z,54.60
2018-02-19T14:09:59.424Z,53.90
2018-02-19T14:12:27.691Z,53.90
2018-02-19T14:14:55.959Z,53.70
2018-02-19T14:17:24.273Z,54.20
2018-02-19T14:19:52.611Z,54.40
2018-02-19T14:22:20.869Z,53.90
2018-02-19T14:24:49.153Z,54.40
2018-02-19T14:27:17.515Z,53.70
2018-02-19T14:29:45.895Z,53.80
2018-02-19T14:32:14.150Z,54.00
2018-02-19T14:34:42.467Z,53.70
2018-02-19T14:37:10.707Z,53.80
2018-02-19T14:39:38.983Z,53.70
2018-02-19T14:42:08.083Z,53.80
2018-02-19T14:44:36.526Z,53.80
2018-02-19T14:47:04.789Z,53.50
2018-02-19T14:49:34.604Z,54.30
2018-02-19T14:52:02.898Z,54.20
2018-02-19T14:54:31.242Z,53.20
2018-02-19T14:56:59.512Z,53.20
2018-02-19T14:59:29.548Z,54.00
2018-02-19T15:01:57.793Z,53.90
2018-02-19T15:04:26.963Z,53.50
2018-02-19T15:06:56.794Z,53.10
2018-02-19T15:09:26.660Z,53.10
2018-02-19T15:11:54.963Z,53.10
2018-02-19T15:14:23.335Z,53.00
2018-02-19T15:16:51.718Z,53.00
2018-02-19T15:19:20.723Z,53.30
2018-02-19T15:21:49.019Z,53.20
2018-02-19T15:24:17.398Z,52.80
2018-02-19T15:26:45.672Z,53.20
2018-02-19T15:29:13.946Z,53.60
2018-02-19T15:31:42.215Z,53.20
2018-02-19T15:34:10.467Z,52.70
2018-02-19T15:36:38.750Z,52.90
2018-02-19T15:39:07.047Z,53.00
2018-02-19T15:41:35.307Z,53.30
2018-02-19T15:44:03.574Z,53.60
2018-02-19T15:46:31.910Z,53.40
2018-02-19T15:49:00.219Z,53.40
2018-02-19T15:51:28.488Z,53.40
2018-02-19T15:53:56.799Z,53.10
2018-02-19T15:56:25.165Z,52.50
2018-02-19T15:58:53.448Z,52.40
2018-02-19T16:01:21.770Z,52.90
2018-02-19T16:03:50.799Z,54.10
2018-02-19T16:06:19.152Z,54.00
2018-02-19T16:08:47.467Z,53.90
2018-02-19T16:11:15.709Z,54.30
2018-02-19T16:13:43.990Z,54.50
2018-02-19T16:16:12.377Z,54.90
2018-02-19T16:18:40.736Z,54.80
2018-02-19T16:21:09.819Z,55.50
2018-02-19T16:23:38.424Z,55.40
2018-02-19T16:26:06.917Z,55.10
2018-02-19T16:28:35.245Z,56.50
2018-02-19T16:31:04.282Z,55.60
2018-02-19T16:33:33.420Z,55.60
2018-02-19T16:36:01.672Z,55.60
2018-02-19T16:38:29.935Z,55.50
2018-02-19T16:40:58.220Z,56.00
2018-02-19T16:43:26.490Z,55.90
2018-02-19T16:45:54.743Z,55.80
2018-02-19T16:48:23.087Z,56.30
2018-02-19T16:50:51.384Z,56.40
2018-02-19T16:53:19.639Z,56.50
2018-02-19T16:55:47.924Z,56.90
2018-02-19T16:58:16.329Z,57.10
2018-02-19T17:00:45.347Z,57.20
2018-02-19T17:03:13.598Z,57.10
2018-02-19T17:05:42.213Z,57.40
2018-02-19T17:08:10.435Z,57.50
2018-02-19T17:10:38.704Z,57.30
2018-02-19T17:13:07.041Z,57.60
2018-02-19T17:15:35.384Z,57.80
2018-02-19T17:18:03.722Z,58.00
2018-02-19T17:20:31.982Z,58.10
2018-02-19T17:23:01.011Z,58.30
2018-02-19T17:25:29.403Z,58.20
2018-02-19T17:27:57.749Z,58.40
2018-02-19T17:30:26.774Z,58.40
2018-02-19T17:32:55.016Z,58.40
2018-02-19T17:35:23.356Z,58.50
2018-02-19T17:37:51.635Z,58.60
2018-02-19T17:40:19.882Z,58.40
2018-02-19T17:42:48.158Z,58.70
2018-02-19T17:45:16.576Z,58.60
2018-02-19T17:47:45.604Z,58.70
2018-02-19T17:50:13.927Z,58.70
2018-02-19T17:52:42.158Z,58.50
2018-02-19T17:55:11.380Z,58.50
2018-02-19T17:57:39.616Z,58.40
2018-02-19T18:00:07.909Z,58.50
2018-02-19T18:02:36.168Z,58.50
2018-02-19T18:05:04.448Z,58.60
2018-02-19T18:07:32.727Z,58.60
2018-02-19T18:10:01.011Z,58.70
2018-02-19T18:12:29.362Z,58.70
2018-02-19T18:14:57.664Z,58.70
2018-02-19T18:17:25.932Z,58.70
2018-02-19T18:19:54.293Z,58.70
2018-02-19T18:22:22.520Z,59.30
2018-02-19T18:24:50.797Z,58.70
2018-02-19T18:27:19.875Z,59.30
2018-02-19T18:29:48.180Z,59.30
2018-02-19T18:32:17.183Z,59.80
2018-02-19T18:34:45.641Z,59.80
2018-02-19T18:37:13.910Z,59.80
2018-02-19T18:39:42.168Z,60.10
2018-02-19T18:42:10.423Z,60.00
2018-02-19T18:44:38.871Z,60.00
2018-02-19T18:47:07.155Z,59.80
2018-02-19T18:49:35.544Z,59.50
2018-02-19T18:52:03.834Z,59.90
2018-02-19T18:54:32.099Z,59.80
2018-02-19T18:57:00.629Z,60.00
2018-02-19T18:59:29.518Z,60.50
2018-02-19T19:01:57.804Z,60.80
2018-02-19T19:04:26.819Z,61.00
2018-02-19T19:06:55.107Z,61.00
2018-02-19T19:09:36.083Z,60.10
2018-02-19T19:12:04.364Z,60.00
2018-02-19T19:14:32.688Z,60.10
2018-02-19T19:17:00.910Z,60.30
2018-02-19T19:19:29.436Z,60.30
2018-02-19T19:21:57.761Z,60.40
2018-02-19T19:24:26.040Z,60.10
2018-02-19T19:26:54.301Z,60.10
2018-02-19T19:29:23.321Z,59.90
2018-02-19T19:31:51.578Z,59.80
2018-02-19T19:34:19.879Z,60.20
2018-02-19T19:36:48.163Z,60.30
2018-02-19T19:39:16.475Z,60.40
2018-02-19T19:41:45.508Z,60.00
2018-02-19T19:44:13.821Z,60.00
2018-02-19T19:46:42.222Z,60.00
2018-02-19T19:49:11.308Z,59.70
2018-02-19T19:51:39.551Z,59.70
2018-02-19T19:54:08.717Z,59.60
2018-02-19T19:56:36.956Z,59.60
2018-02-19T19:59:06.000Z,59.50
2018-02-19T20:01:34.344Z,59.60
2018-02-19T20:04:03.412Z,59.80
2018-02-19T20:06:32.456Z,59.60
2018-02-19T20:09:00.896Z,59.50
2018-02-19T20:11:29.166Z,59.10
2018-02-19T20:13:58.198Z,58.90
2018-02-19T20:16:26.471Z,58.80
2018-02-19T20:18:54.732Z,59.10
2018-02-19T20:21:23.181Z,59.20
2018-02-19T20:23:51.426Z,59.40
2018-02-19T20:26:20.508Z,59.40
2018-02-19T20:28:48.784Z,59.30
2018-02-19T20:31:17.022Z,59.50
2018-02-19T20:33:45.407Z,59.70
2018-02-19T20:36:13.691Z,59.80
2018-02-19T20:38:41.968Z,60.00
2018-02-19T20:41:10.298Z,59.70
2018-02-19T20:43:39.384Z,59.80
2018-02-19T20:46:08.468Z,60.00
2018-02-19T20:48:37.865Z,60.00
2018-02-19T20:51:06.286Z,59.90
2018-02-19T20:53:34.659Z,59.90
2018-02-19T20:56:04.183Z,60.00
2018-02-19T20:58:32.625Z,60.00
2018-02-19T21:01:02.079Z,60.00
2018-02-19T21:03:30.603Z,59.90
2018-02-19T21:05:58.916Z,60.20
2018-02-19T21:08:27.978Z,60.30
2018-02-19T21:10:57.041Z,60.40
2018-02-19T21:13:25.346Z,60.30
2018-02-19T21:15:54.382Z,60.60
2018-02-19T21:18:22.652Z,60.50
2018-02-19T21:20:50.972Z,60.40
2018-02-19T21:23:19.229Z,60.70
2018-02-19T21:25:47.492Z,61.20
2018-02-19T21:28:15.876Z,60.80
2018-02-19T21:30:44.195Z,60.80
2018-02-19T21:33:12.474Z,60.70
2018-02-19T21:35:41.551Z,60.90
2018-02-19T21:38:09.781Z,60.90
2018-02-19T21:40:38.083Z,60.80
2018-02-19T21:43:06.359Z,61.00
2018-02-19T21:45:34.622Z,61.30
2018-02-19T21:48:02.926Z,61.50
2018-02-19T21:50:31.953Z,62.10
2018-02-19T21:53:00.225Z,62.00
2018-02-19T21:55:28.478Z,62.10
2018-02-19T21:57:57.561Z,62.50
2018-02-19T22:00:25.799Z,62.40
2018-02-19T22:02:54.082Z,62.70
2018-02-19T22:05:22.452Z,62.70
2018-02-19T22:07:50.752Z,62.70
2018-02-19T22:10:18.979Z,62.80
2018-02-19T22:12:47.238Z,62.80
2018-02-19T22:15:15.696Z,63.00
2018-02-19T22:17:44.719Z,63.20
2018-02-19T22:20:13.060Z,63.20
2018-02-19T22:22:42.144Z,63.30
2018-02-19T22:25:10.451Z,63.30
2018-02-19T22:27:38.714Z,63.60
2018-02-19T22:30:07.740Z,63.60
2018-02-19T22:32:36.110Z,63.50
2018-02-19T22:35:04.374Z,63.60
2018-02-19T22:37:32.755Z,63.60
2018-02-19T22:40:01.060Z,63.70
2018-02-19T22:42:29.303Z,63.70
2018-02-19T22:44:57.578Z,63.60
2018-02-19T22:47:26.587Z,63.90
2018-02-19T22:49:54.943Z,63.90
2018-02-19T22:52:23.207Z,64.00
2018-02-19T22:54:52.239Z,64.10
2018-02-19T22:57:20.512Z,64.10
2018-02-19T22:59:48.765Z,64.10
2018-02-19T23:02:17.050Z,64.40
2018-02-19T23:04:45.324Z,65.20
2018-02-19T23:07:13.574Z,64.40
2018-02-19T23:09:41.824Z,64.60
2018-02-19T23:12:10.351Z,64.60
2018-02-19T23:14:38.595Z,64.70
2018-02-19T23:17:07.660Z,65.80
2018-02-19T23:19:36.878Z,65.20
2018-02-19T23:22:05.161Z,65.10
2018-02-19T23:24:33.509Z,65.40
2018-02-19T23:27:01.787Z,65.80
2018-02-19T23:29:30.060Z,65.90
2018-02-19T23:31:58.320Z,66.20
2018-02-19T23:34:26.733Z,66.40
2018-02-19T23:36:55.047Z,66.60
2018-02-19T23:39:23.315Z,66.80
2018-02-19T23:41:51.612Z,67.20
2018-02-19T23:44:19.883Z,67.00
2018-02-19T23:46:48.176Z,68.00
2018-02-19T23:49:16.459Z,68.20
2018-02-19T23:51:44.816Z,68.80
2018-02-19T23:54:18.853Z,69.00
2018-02-19T23:56:47.111Z,69.00
2018-02-19T23:59:15.481Z,69.20
